Time;durP1;ratioP1;P1;durP2;ratioP2;P2;SDS_P1;SDS_P2;PMS_P1;PMS_P2;Temp;Humidity;BMP_temperature;BMP_pressure;BME280_temperature;BME280_humidity;BME280_pressure;Samples;Min_cycle;Max_cycle;Signal;HPM_P1;HPM_P2
2022/05/03 00:00:54;;;;;;;8.95;5.78;;;6.30;99.90;;;;;;4788034;30;20059;-68
2022/05/03 00:03:28;;;;;;;10.00;5.40;;;6.70;99.90;;;;;;4787616;30;20055;-67
2022/05/03 00:06:08;;;;;;;8.60;5.30;;;6.60;99.90;;;;;;4787733;29;20059;-68
2022/05/03 00:08:58;;;;;;;6.43;5.18;;;6.40;99.90;;;;;;4788005;30;20070;-67
2022/05/03 00:12:07;;;;;;;10.18;5.53;;;6.60;99.90;;;;;;4787749;30;20075;-67
2022/05/03 00:14:33;;;;;;;9.30;6.10;;;;;;;;;;4766793;30;20130;-67
2022/05/03 00:16:59;;;;;;;7.15;5.57;;;6.50;99.90;;;;;;4786470;30;20455;-67
2022/05/03 00:19:27;;;;;;;7.18;5.88;;;6.30;99.90;;;;;;4787099;30;20155;-67
2022/05/03 00:21:53;;;;;;;7.68;5.82;;;;;;;;;;4787732;30;20051;-67
2022/05/03 00:24:19;;;;;;;7.53;5.90;;;6.00;99.90;;;;;;4787430;30;20090;-68
2022/05/03 00:26:46;;;;;;;8.80;5.82;;;6.10;99.90;;;;;;4787831;30;20124;-67
2022/05/03 00:29:12;;;;;;;8.82;6.30;;;7.60;99.90;;;;;;4786432;30;20458;-67
2022/05/03 00:31:37;;;;;;;8.38;6.10;;;6.10;99.90;;;;;;4787602;30;20137;-67
2022/05/03 00:34:04;;;;;;;7.18;5.63;;;6.20;99.90;;;;;;4787472;30;20442;-67
2022/05/03 00:36:31;;;;;;;7.95;5.97;;;6.50;99.90;;;;;;4787354;30;20055;-67
2022/05/03 00:38:57;;;;;;;10.10;6.05;;;;;;;;;;4787111;30;20126;-67
2022/05/03 00:41:35;;;;;;;7.07;6.30;;;5.80;99.90;;;;;;4787506;30;20469;-68
2022/05/03 00:44:55;;;;;;;9.77;6.50;;;6.40;99.90;;;;;;4787262;30;20055;-67
2022/05/03 00:46:58;;;;;;;9.27;6.40;;;6.20;99.90;;;;;;4787036;30;20043;-68
2022/05/03 00:49:39;;;;;;;9.80;6.80;;;6.00;99.90;;;;;;4787025;30;20051;-67
2022/05/03 00:52:12;;;;;;;7.93;6.55;;;6.10;99.90;;;;;;4787167;30;20139;-68
2022/05/03 00:54:56;;;;;;;8.10;6.55;;;5.80;99.90;;;;;;4787062;30;20062;-67
2022/05/03 00:57:55;;;;;;;13.15;6.75;;;6.10;99.90;;;;;;4787132;30;20055;-68
2022/05/03 01:00:24;;;;;;;10.23;6.72;;;6.20;99.90;;;;;;4785860;30;20059;-68
2022/05/03 01:03:10;;;;;;;13.98;7.38;;;5.70;99.90;;;;;;4776590;30;20059;-68
2022/05/03 01:05:55;;;;;;;9.20;6.78;;;5.90;99.90;;;;;;4786946;30;20066;-67
2022/05/03 01:08:38;;;;;;;7.97;6.30;;;5.80;99.90;;;;;;4787232;30;20055;-68
2022/05/03 01:11:23;;;;;;;8.40;6.45;;;5.90;99.90;;;;;;4787207;30;20458;-68
2022/05/03 01:14:36;;;;;;;9.60;6.43;;;5.70;99.90;;;;;;4770650;30;20508;-67
2022/05/03 01:17:17;;;;;;;9.70;6.60;;;6.00;99.90;;;;;;4706438;30;20049;-67
2022/05/03 01:19:58;;;;;;;8.88;6.30;;;5.80;99.90;;;;;;4786973;30;20051;-67
2022/05/03 01:22:34;;;;;;;8.65;6.82;;;4.10;99.90;;;;;;4786840;30;20067;-67
2022/05/03 01:25:00;;;;;;;10.13;6.32;;;;;;;;;;4786874;30;20051;-68
2022/05/03 01:27:31;;;;;;;10.25;6.93;;;5.60;99.90;;;;;;4786783;30;20436;-67
2022/05/03 01:29:59;;;;;;;11.07;6.57;;;5.70;99.90;;;;;;4786784;30;20047;-68
2022/05/03 01:32:25;;;;;;;7.85;6.63;;;;;;;;;;4786646;30;20047;-67
2022/05/03 01:34:52;;;;;;;9.50;6.88;;;5.40;99.90;;;;;;4786523;30;20061;-67
2022/05/03 01:37:20;;;;;;;10.00;6.97;;;;;;;;;;4786379;30;20079;-68
2022/05/03 01:40:11;;;;;;;10.27;6.55;;;5.00;99.90;;;;;;4786651;30;20488;-68
2022/05/03 01:42:37;;;;;;;8.68;6.95;;;;;;;;;;4770384;30;20063;-67
2022/05/03 01:45:08;;;;;;;9.25;6.68;;;5.50;99.90;;;;;;4786643;30;20401;-67
2022/05/03 01:48:04;;;;;;;10.88;7.15;;;5.40;99.90;;;;;;4770795;30;20059;-67
2022/05/03 01:50:42;;;;;;;9.98;7.38;;;5.20;99.90;;;;;;4786261;30;20134;-67
2022/05/03 01:53:12;;;;;;;11.73;7.30;;;5.10;99.90;;;;;;4786345;30;20054;-67
2022/05/03 01:56:07;;;;;;;9.00;7.18;;;5.00;99.90;;;;;;4786307;30;20460;-68
2022/05/03 01:58:45;;;;;;;8.95;6.80;;;5.10;99.90;;;;;;4786471;30;20106;-67
2022/05/03 02:01:11;;;;;;;10.73;7.53;;;;;;;;;;4786473;30;20055;-67
2022/05/03 02:03:48;;;;;;;12.25;8.50;;;5.20;99.90;;;;;;4786167;30;20051;-67
2022/05/03 02:06:15;;;;;;;10.43;7.90;;;5.00;99.90;;;;;;4786167;30;20055;-67
2022/05/03 02:09:04;;;;;;;11.32;8.32;;;5.10;99.90;;;;;;4786138;30;20048;-68
2022/05/03 02:11:30;;;;;;;10.38;7.68;;;;;;;;;;4786215;30;20415;-67
2022/05/03 02:17:03;;;;;;;12.07;9.25;;;5.10;99.90;;;;;;4786517;30;20151;-67
2022/05/03 02:19:56;;;;;;;10.20;8.70;;;5.20;99.90;;;;;;4786338;30;20057;-67
2022/05/03 02:22:31;;;;;;;12.10;9.05;;;4.70;99.90;;;;;;4786184;30;20197;-67
2022/05/03 02:25:13;;;;;;;11.98;8.20;;;4.70;99.90;;;;;;4786090;30;20059;-67
2022/05/03 02:27:46;;;;;;;11.80;9.15;;;5.00;99.90;;;;;;4786359;30;20098;-67
2022/05/03 02:30:14;;;;;;;12.70;8.45;;;5.00;99.90;;;;;;4788962;29;20091;-68
2022/05/03 02:32:52;;;;;;;10.18;8.25;;;5.10;99.90;;;;;;4789514;30;20051;-67
2022/05/03 02:35:21;;;;;;;12.02;8.45;;;5.00;99.90;;;;;;4789377;30;20060;-68
2022/05/03 02:37:55;;;;;;;14.02;9.63;;;5.10;99.90;;;;;;4789228;30;20070;-67
2022/05/03 02:40:25;;;;;;;12.00;8.80;;;5.10;99.90;;;;;;4789621;30;20059;-67
2022/05/03 02:42:51;;;;;;;11.98;8.75;;;5.10;99.90;;;;;;4773744;30;20051;-67
2022/05/03 02:45:18;;;;;;;10.00;7.97;;;5.20;99.90;;;;;;4789281;30;20132;-68
2022/05/03 02:47:59;;;;;;;10.40;7.88;;;5.00;99.90;;;;;;4789191;30;20112;-67
2022/05/03 02:50:42;;;;;;;14.10;8.32;;;5.00;99.90;;;;;;4773050;30;20564;-67
2022/05/03 02:53:29;;;;;;;12.10;8.55;;;4.90;99.90;;;;;;4789230;30;20077;-67
2022/05/03 02:56:01;;;;;;;11.32;8.10;;;4.40;99.90;;;;;;4789676;30;20066;-67
2022/05/03 02:58:54;;;;;;;10.07;8.18;;;4.80;99.90;;;;;;4788983;30;20058;-68
2022/05/03 03:04:05;;;;;;;11.30;8.10;;;;;;;;;;4789192;30;20481;-68
2022/05/03 03:06:33;;;;;;;11.77;8.77;;;4.50;99.90;;;;;;4772982;30;20051;-68
2022/05/03 03:09:00;;;;;;;11.93;8.52;;;4.80;99.90;;;;;;4788179;30;20063;-67
2022/05/03 03:11:52;;;;;;;11.05;8.80;;;4.80;99.90;;;;;;4789328;30;20164;-67
2022/05/03 03:14:21;;;;;;;13.60;9.00;;;4.70;99.90;;;;;;4788926;30;20151;-67
2022/05/03 03:16:54;;;;;;;10.30;8.10;;;3.90;99.90;;;;;;4788699;30;20066;-67
2022/05/03 03:19:52;;;;;;;12.88;9.25;;;4.70;99.90;;;;;;4788563;30;20078;-67
2022/05/03 03:22:20;;;;;;;11.20;8.52;;;4.30;99.90;;;;;;4788805;30;20058;-67
2022/05/03 03:24:48;;;;;;;12.35;9.73;;;4.60;99.90;;;;;;4788806;30;20492;-68
2022/05/03 03:27:14;;;;;;;13.25;9.02;;;;;;;;;;4788613;30;20399;-67
2022/05/03 03:29:42;;;;;;;13.27;10.40;;;4.70;99.90;;;;;;4788647;30;20055;-67
2022/05/03 03:32:09;;;;;;;12.98;9.70;;;4.60;99.90;;;;;;4788306;30;20535;-68
2022/05/03 03:34:39;;;;;;;14.27;9.45;;;4.60;99.90;;;;;;4788780;30;20055;-67
2022/05/03 03:37:07;;;;;;;13.02;10.02;;;4.60;99.90;;;;;;4788601;30;20572;-67
2022/05/03 03:39:34;;;;;;;13.55;9.90;;;4.50;99.90;;;;;;4788869;30;20047;-67
2022/05/03 03:42:07;;;;;;;11.75;9.13;;;2.60;99.90;;;;;;4787850;29;20366;-67
2022/05/03 03:44:33;;;;;;;14.57;9.50;;;4.50;99.90;;;;;;4788180;30;20047;-67
2022/05/03 03:47:00;;;;;;;15.70;11.32;;;4.50;99.90;;;;;;4788800;30;20134;-67
2022/05/03 03:49:27;;;;;;;14.65;10.20;;;4.40;99.90;;;;;;4788118;30;20051;-67
2022/05/03 03:51:54;;;;;;;13.27;9.73;;;4.10;99.90;;;;;;4788192;30;20051;-68
2022/05/03 03:54:20;;;;;;;17.50;10.07;;;;;;;;;;4788113;30;20065;-67
2022/05/03 03:56:47;;;;;;;14.77;11.25;;;4.50;99.90;;;;;;4788237;30;20091;-59
2022/05/03 03:59:14;;;;;;;17.38;12.23;;;5.00;99.90;;;;;;4772224;30;20165;-59
2022/05/03 04:01:41;;;;;;;23.73;15.00;;;4.80;99.90;;;;;;4787928;30;20098;-59
2022/05/03 04:04:09;;;;;;;25.95;18.20;;;4.60;99.90;;;;;;4787635;30;20055;-59
2022/05/03 04:06:35;;;;;;;21.45;15.40;;;4.70;99.90;;;;;;4788152;30;20061;-59
2022/05/03 04:09:02;;;;;;;23.25;15.18;;;5.40;99.90;;;;;;4787744;30;20382;-59
2022/05/03 04:11:28;;;;;;;22.23;15.13;;;;;;;;;;4787650;30;20055;-59
2022/05/03 04:13:53;;;;;;;21.63;14.80;;;4.90;99.90;;;;;;4788005;30;20062;-59
2022/05/03 04:16:20;;;;;;;18.08;13.63;;;;;;;;;;4787973;30;20112;-59
2022/05/03 04:18:46;;;;;;;20.75;13.35;;;;;;;;;;4788039;30;20392;-59
2022/05/03 04:21:16;;;;;;;17.83;13.35;;;4.80;99.90;;;;;;4786683;30;20066;-59
2022/05/03 04:23:45;;;;;;;17.63;12.13;;;5.90;99.90;;;;;;4787600;30;20125;-59
2022/05/03 04:26:12;;;;;;;21.95;12.63;;;4.90;99.90;;;;;;4787756;30;20075;-59
2022/05/03 04:28:41;;;;;;;16.92;12.10;;;4.90;99.90;;;;;;4787707;30;20428;-59
2022/05/03 04:31:07;;;;;;;15.55;12.00;;;5.10;99.90;;;;;;4787472;30;20412;-59
2022/05/03 04:33:33;;;;;;;17.35;11.30;;;;;;;;;;4787433;30;20047;-59
2022/05/03 04:35:59;;;;;;;15.55;12.38;;;4.80;99.90;;;;;;4787374;30;20081;-60
2022/05/03 04:38:24;;;;;;;14.55;11.73;;;5.30;99.90;;;;;;4787353;30;20150;-59
2022/05/03 04:40:56;;;;;;;17.40;11.90;;;5.50;99.90;;;;;;4787094;30;20515;-59
2022/05/03 04:43:22;;;;;;;18.38;11.27;;;5.80;99.90;;;;;;4787311;30;20047;-59
2022/05/03 04:45:48;;;;;;;15.45;11.73;;;5.70;99.90;;;;;;4787221;30;20073;-59
2022/05/03 04:48:14;;;;;;;15.82;11.82;;;;;;;;;;4787283;30;20417;-59
2022/05/03 04:50:41;;;;;;;15.05;11.23;;;;;;;;;;4787137;30;20051;-60
2022/05/03 04:53:07;;;;;;;16.73;11.32;;;;;;;;;;4786684;29;20116;-59
2022/05/03 04:55:33;;;;;;;18.55;12.88;;;;;;;;;;4779187;29;20187;-59
2022/05/03 04:57:59;;;;;;;18.55;12.63;;;;;;;;;;4781872;30;20062;-59
2022/05/03 05:00:25;;;;;;;17.33;13.00;;;5.20;99.90;;;;;;4784902;29;20130;-59
2022/05/03 05:02:51;;;;;;;24.00;12.98;;;;;;;;;;4785510;30;20123;-59
2022/05/03 05:05:17;;;;;;;18.77;12.93;;;;;;;;;;4785856;30;20497;-59
2022/05/03 05:07:42;;;;;;;19.55;13.25;;;6.60;99.90;;;;;;4769445;30;20062;-59
2022/05/03 05:10:24;;;;;;;19.10;13.18;;;6.20;99.90;;;;;;4786794;30;20063;-59
2022/05/03 05:13:02;;;;;;;13.93;11.13;;;6.50;99.90;;;;;;4770800;30;20797;-59
2022/05/03 05:15:28;;;;;;;16.80;10.02;;;8.20;99.90;;;;;;4770995;30;20066;-59
2022/05/03 05:17:57;;;;;;;14.02;10.35;;;9.20;99.90;;;;;;4786545;29;20860;-60
2022/05/03 05:20:25;;;;;;;17.90;10.05;;;10.30;99.90;;;;;;4787219;30;20055;-59
2022/05/03 05:22:51;;;;;;;14.65;9.05;;;;;;;;;;4770578;30;20051;-57
2022/05/03 05:25:16;;;;;;;11.50;8.38;;;11.90;99.90;;;;;;4789019;29;20043;-58
2022/05/03 05:27:42;;;;;;;14.40;9.57;;;12.80;99.90;;;;;;4793115;29;20420;-58
2022/05/03 05:30:08;;;;;;;16.58;8.43;;;13.60;99.90;;;;;;4786346;30;20140;-58
2022/05/03 05:32:35;;;;;;;10.98;9.02;;;14.00;99.90;;;;;;4770602;30;20047;-59
2022/05/03 05:35:01;;;;;;;11.55;7.90;;;14.90;99.90;;;;;;4786580;30;20454;-58
2022/05/03 05:37:27;;;;;;;13.15;8.07;;;15.60;99.90;;;;;;4786504;30;20039;-58
2022/05/03 05:39:53;;;;;;;8.80;7.82;;;;;;;;;;4786573;30;20419;-58
2022/05/03 05:42:18;;;;;;;13.73;8.48;;;16.90;99.90;;;;;;4785472;30;20082;-58
2022/05/03 05:44:44;;;;;;;12.23;8.60;;;17.10;98.40;;;;;;4786218;30;20360;-58
2022/05/03 05:47:10;;;;;;;9.88;8.57;;;17.10;96.00;;;;;;4784924;30;20055;-58
2022/05/03 05:49:36;;;;;;;15.75;8.90;;;;;;;;;;4786380;30;20104;-58
2022/05/03 05:54:46;;;;;;;12.43;9.27;;;18.50;90.10;;;;;;4786180;30;20124;-58
2022/05/03 05:57:12;;;;;;;12.90;9.23;;;19.10;85.80;;;;;;4786115;30;20063;-58
2022/05/03 05:59:38;;;;;;;12.70;9.63;;;19.20;83.50;;;;;;4786141;30;20056;-58
2022/05/03 06:02:04;;;;;;;12.13;10.05;;;;;;;;;;4769937;30;20062;-59
2022/05/03 06:04:30;;;;;;;17.80;10.52;;;;;;;;;;4788359;29;20101;-59
2022/05/03 06:06:56;;;;;;;13.90;10.93;;;;;;;;;;4789771;30;20048;-58
2022/05/03 06:09:22;;;;;;;13.18;10.35;;;;;;;;;;4789701;30;20054;-58
2022/05/03 06:11:49;;;;;;;14.70;11.23;;;21.20;71.10;;;;;;4789794;30;20059;-58
2022/05/03 06:14:15;;;;;;;27.08;13.35;;;21.30;72.50;;;;;;4789697;30;20390;-58
2022/05/03 06:17:07;;;;;;;27.35;14.50;;;21.30;56.90;;;;;;4789534;30;20137;-58
2022/05/03 06:19:33;;;;;;;24.40;15.48;;;;;;;;;;4787079;30;20065;-58
2022/05/03 06:21:59;;;;;;;22.35;15.57;;;21.30;72.10;;;;;;4789465;30;20055;-58
2022/05/03 06:24:25;;;;;;;27.15;16.70;;;21.40;73.80;;;;;;4789726;30;20522;-58
2022/05/03 06:26:51;;;;;;;24.45;16.65;;;;;;;;;;4789347;30;20126;-58
2022/05/03 06:29:17;;;;;;;20.63;16.73;;;20.40;70.60;;;;;;4789676;30;20163;-58
2022/05/03 06:31:43;;;;;;;21.52;17.45;;;;;;;;;;4789373;30;20087;-59
2022/05/03 06:34:09;;;;;;;24.77;18.58;;;19.10;64.70;;;;;;4789651;30;20062;-59
2022/05/03 06:36:35;;;;;;;22.80;18.90;;;;;;;;;;4789522;30;20059;-59
2022/05/03 06:39:05;;;;;;;24.27;19.25;;;16.50;72.60;;;;;;4789397;30;20420;-58
2022/05/03 06:41:32;;;;;;;26.80;20.70;;;17.20;80.30;;;;;;4789051;30;20130;-58
2022/05/03 06:43:58;;;;;;;29.50;22.38;;;16.90;95.00;;;;;;4789400;30;20051;-58
2022/05/03 06:46:28;;;;;;;26.67;21.50;;;16.40;98.00;;;;;;4789330;30;20086;-58
2022/05/03 06:48:54;;;;;;;25.92;22.10;;;16.60;99.00;;;;;;4772881;30;20197;-58
2022/05/03 06:51:20;;;;;;;28.60;24.08;;;;;;;;;;4788978;30;20059;-59
2022/05/03 06:53:47;;;;;;;30.45;24.50;;;16.00;99.90;;;;;;4789070;30;20055;-59
2022/05/03 06:56:14;;;;;;;32.05;24.27;;;16.50;99.90;;;;;;4789507;30;20054;-58
2022/05/03 06:58:41;;;;;;;31.65;24.67;;;16.00;99.90;;;;;;4788912;30;20516;-58
2022/05/03 07:01:11;;;;;;;30.10;24.73;;;15.50;99.90;;;;;;4788839;30;20055;-58
2022/05/03 07:03:37;;;;;;;29.17;24.67;;;15.30;99.90;;;;;;4788708;30;20055;-58
2022/05/03 07:06:04;;;;;;;31.23;24.80;;;14.90;99.90;;;;;;4789188;30;20047;-59
2022/05/03 07:08:30;;;;;;;29.23;23.58;;;14.50;99.90;;;;;;4788678;30;20082;-58
2022/05/03 07:10:56;;;;;;;29.63;24.27;;;14.20;99.90;;;;;;4772889;30;20067;-58
2022/05/03 07:13:25;;;;;;;35.20;26.20;;;13.80;99.90;;;;;;4788850;30;20051;-58
2022/05/03 07:15:55;;;;;;;37.92;26.33;;;13.80;99.90;;;;;;4786263;29;20047;-58
2022/05/03 07:23:51;;;;;;;33.40;24.00;;;13.70;99.90;;;;;;4806724;29;20107;-58
2022/05/03 07:26:17;;;;;;;38.25;25.75;;;13.70;99.90;;;;;;4805558;29;20049;-58
2022/05/03 07:28:43;;;;;;;36.97;25.58;;;;;;;;;;4799117;29;20047;-58
2022/05/03 07:31:10;;;;;;;34.47;24.23;;;;;;;;;;4789178;30;20059;-58
2022/05/03 07:33:36;;;;;;;35.75;25.15;;;;;;;;;;4788296;30;20051;-59
2022/05/03 07:36:03;;;;;;;39.63;25.77;;;13.20;99.90;;;;;;4788590;30;20059;-63
2022/05/03 07:38:29;;;;;;;39.08;25.70;;;13.20;99.90;;;;;;4772262;30;20130;-59
2022/05/03 07:40:58;;;;;;;38.33;25.65;;;12.90;99.90;;;;;;4788548;30;20055;-59
2022/05/03 07:43:24;;;;;;;36.22;25.15;;;13.20;99.90;;;;;;4788226;30;20051;-59
2022/05/03 07:45:50;;;;;;;40.25;25.98;;;13.20;99.90;;;;;;4788086;30;20047;-59
2022/05/03 07:48:15;;;;;;;36.65;25.90;;;13.10;99.90;;;;;;4788171;30;20361;-58
2022/05/03 07:50:41;;;;;;;34.92;24.77;;;13.30;99.90;;;;;;4788316;30;20112;-59
2022/05/03 07:53:07;;;;;;;45.22;27.02;;;13.30;99.90;;;;;;4788260;30;20055;-59
2022/05/03 07:55:33;;;;;;;42.40;28.85;;;;;;;;;;4788536;30;20055;-59
2022/05/03 07:57:58;;;;;;;43.25;28.55;;;13.30;99.90;;;;;;4794492;29;20059;-58
2022/05/03 08:00:24;;;;;;;51.63;31.23;;;13.60;99.90;;;;;;4804921;29;20059;-59
2022/05/03 08:02:50;;;;;;;48.60;30.33;;;;;;;;;;4804498;29;20079;-59
2022/05/03 08:05:16;;;;;;;45.65;30.63;;;13.20;99.90;;;;;;4789988;29;20051;-59
2022/05/03 08:07:42;;;;;;;47.20;30.25;;;13.40;99.90;;;;;;4806014;29;20126;-58
2022/05/03 08:10:08;;;;;;;47.65;30.35;;;;;;;;;;4789868;29;20139;-58
2022/05/03 08:12:35;;;;;;;47.85;30.63;;;12.60;99.90;;;;;;4805799;29;20055;-58
2022/05/03 08:15:02;;;;;;;54.58;33.03;;;12.70;99.90;;;;;;4789575;29;20051;-58
2022/05/03 08:17:28;;;;;;;56.90;33.92;;;13.00;99.90;;;;;;4805629;29;20067;-59
2022/05/03 08:19:54;;;;;;;58.97;34.65;;;12.70;99.90;;;;;;4805893;29;20108;-58
2022/05/03 08:22:21;;;;;;;60.45;35.40;;;;;;;;;;4805777;29;20046;-58
2022/05/03 08:24:46;;;;;;;60.13;36.45;;;12.50;99.90;;;;;;4805618;29;20086;-58
2022/05/03 08:27:13;;;;;;;64.53;36.95;;;;;;;;;;4805633;29;20082;-58
2022/05/03 08:29:39;;;;;;;62.20;36.25;;;;;;;;;;4789133;29;20065;-58
2022/05/03 08:32:05;;;;;;;69.43;38.05;;;11.90;99.90;;;;;;4805739;29;20054;-58
2022/05/03 08:34:31;;;;;;;73.13;37.03;;;12.20;99.90;;;;;;4805602;29;20126;-58
2022/05/03 08:42:27;;;;;;;66.57;34.13;;;;;;;;;;4805409;29;20129;-58
2022/05/03 08:44:55;;;;;;;61.53;32.92;;;;;;;;;;4805639;29;20420;-58
2022/05/03 08:47:22;;;;;;;54.15;32.60;;;;;;;;;;4805191;29;20062;-58
2022/05/03 08:50:06;;;;;;;53.67;31.52;;;12.30;99.90;;;;;;4788921;29;20090;-58
2022/05/03 08:52:43;;;;;;;48.75;31.10;;;12.20;99.90;;;;;;4788981;29;20679;-58
2022/05/03 08:55:09;;;;;;;50.38;30.58;;;;;;;;;;4805289;29;20489;-58
2022/05/03 08:57:35;;;;;;;51.83;30.02;;;12.00;99.90;;;;;;4789028;29;20063;-58
2022/05/03 09:00:05;;;;;;;43.47;26.90;;;12.10;99.90;;;;;;4804967;29;20065;-59
2022/05/03 09:02:34;;;;;;;37.78;25.85;;;12.00;99.90;;;;;;4804572;29;20059;-59
2022/05/03 09:05:01;;;;;;;35.67;25.02;;;12.10;99.90;;;;;;4804716;29;20087;-58
2022/05/03 09:07:27;;;;;;;34.50;23.25;;;12.10;99.90;;;;;;4805001;29;20059;-61
2022/05/03 09:09:54;;;;;;;35.30;23.85;;;11.90;99.90;;;;;;4805050;29;20061;-58
2022/05/03 09:12:26;;;;;;;33.40;23.38;;;11.90;99.90;;;;;;4804891;29;20063;-58
2022/05/03 09:14:52;;;;;;;30.98;22.17;;;11.90;99.90;;;;;;4788448;29;20061;-58
2022/05/03 09:17:37;;;;;;;31.88;21.90;;;11.90;99.90;;;;;;4804786;29;20069;-58
2022/05/03 09:26:13;;;;;;;28.67;17.38;;;11.70;99.90;;;;;;4804949;29;20058;-59
2022/05/03 09:29:09;;;;;;;23.75;15.98;;;11.90;99.90;;;;;;4804761;29;20065;-59
2022/05/03 09:31:48;;;;;;;25.20;14.10;;;11.90;99.90;;;;;;4804117;29;20466;-59
2022/05/03 09:34:22;;;;;;;23.15;12.45;;;11.70;99.90;;;;;;4804293;29;20066;-59
2022/05/03 09:37:02;;;;;;;19.08;9.77;;;11.40;99.90;;;;;;4804511;29;20055;-59
2022/05/03 09:39:41;;;;;;;19.98;9.20;;;11.60;99.90;;;;;;4804137;29;20127;-60
2022/05/03 09:42:14;;;;;;;17.00;8.40;;;11.50;99.90;;;;;;4804322;29;20082;-59
2022/05/03 09:45:02;;;;;;;17.10;8.50;;;11.50;99.90;;;;;;4773202;29;20051;-59
2022/05/03 09:47:30;;;;;;;17.92;8.48;;;11.50;99.90;;;;;;4804469;29;20051;-60
2022/05/03 09:49:56;;;;;;;17.70;8.23;;;;;;;;;;4804448;29;20111;-59
2022/05/03 09:52:36;;;;;;;18.20;8.60;;;11.60;99.90;;;;;;4804625;29;20526;-59
2022/05/03 09:55:08;;;;;;;17.88;8.88;;;11.30;99.90;;;;;;4804296;29;20134;-59
2022/05/03 09:57:36;;;;;;;18.08;7.82;;;11.60;99.90;;;;;;4788054;29;20493;-59
2022/05/03 10:00:08;;;;;;;18.33;7.88;;;11.70;99.90;;;;;;4804253;29;20496;-59
2022/05/03 10:02:37;;;;;;;16.08;8.25;;;11.60;99.90;;;;;;4803892;29;20105;-59
2022/05/03 10:05:03;;;;;;;19.20;8.23;;;12.50;99.90;;;;;;4804311;29;20063;-59
2022/05/03 10:07:29;;;;;;;13.88;7.85;;;;;;;;;;4804575;29;20063;-59
2022/05/03 10:09:55;;;;;;;17.33;8.48;;;12.20;99.90;;;;;;4804131;29;20134;-59
2022/05/03 10:12:21;;;;;;;15.02;7.60;;;11.80;99.90;;;;;;4787585;29;20143;-59
2022/05/03 10:14:48;;;;;;;16.75;8.00;;;12.10;99.90;;;;;;4769100;30;20116;-59
2022/05/03 10:20:40;;;;;;;24.40;8.85;;;12.10;99.90;;;;;;4784758;30;20047;-59
2022/05/03 10:23:28;;;;;;;19.45;8.20;;;12.00;99.90;;;;;;4770180;30;20054;-59
2022/05/03 10:26:05;;;;;;;22.67;8.63;;;12.40;99.90;;;;;;4784759;30;20086;-59
2022/05/03 10:29:02;;;;;;;21.38;8.23;;;12.30;99.90;;;;;;4784950;30;20116;-59
2022/05/03 10:31:28;;;;;;;20.80;8.60;;;;;;;;;;4785227;29;20139;-59
2022/05/03 10:33:55;;;;;;;17.90;9.30;;;;;;;;;;4785736;30;20048;-59
2022/05/03 10:36:32;;;;;;;20.05;8.23;;;12.30;99.90;;;;;;4784992;29;20509;-59
2022/05/03 10:39:11;;;;;;;19.35;8.30;;;11.80;99.90;;;;;;4785038;30;20055;-59
2022/05/03 10:42:01;;;;;;;24.50;8.25;;;12.40;99.90;;;;;;4784763;29;20065;-59
2022/05/03 10:44:56;;;;;;;23.25;8.15;;;12.30;99.90;;;;;;4785247;30;20370;-59
2022/05/03 10:47:48;;;;;;;25.80;8.35;;;12.60;99.90;;;;;;4769302;30;20066;-59
2022/05/03 10:50:17;;;;;;;25.23;7.65;;;;;;;;;;4786227;29;20269;-59
2022/05/03 10:52:46;;;;;;;27.85;8.15;;;12.60;99.90;;;;;;4788332;30;20062;-59
2022/05/03 10:55:13;;;;;;;27.90;8.18;;;12.40;99.90;;;;;;4788571;30;20059;-59
2022/05/03 10:58:18;;;;;;;23.98;8.15;;;12.50;99.90;;;;;;4787895;29;20073;-58
2022/05/03 11:01:05;;;;;;;23.77;7.93;;;12.70;99.90;;;;;;4733117;30;20169;-58
2022/05/03 11:03:33;;;;;;;26.85;8.15;;;12.80;99.90;;;;;;4718504;30;20401;-59
2022/05/03 11:06:23;;;;;;;24.48;8.35;;;12.90;99.90;;;;;;4719004;30;20061;-58
2022/05/03 11:09:19;;;;;;;25.15;8.10;;;12.80;99.90;;;;;;4733139;30;20125;-58
2022/05/03 11:11:52;;;;;;;21.15;7.60;;;12.90;99.90;;;;;;4733291;30;20084;-58
2022/05/03 11:14:26;;;;;;;24.13;8.10;;;12.90;99.90;;;;;;4718423;30;20545;-59
2022/05/03 11:17:14;;;;;;;25.02;7.25;;;12.90;99.90;;;;;;4733037;30;20061;-58
2022/05/03 11:19:53;;;;;;;27.40;7.72;;;12.60;99.90;;;;;;4732984;30;20056;-58
2022/05/03 11:22:30;;;;;;;25.35;7.28;;;12.20;99.90;;;;;;4733281;30;20410;-58
2022/05/03 11:24:57;;;;;;;30.73;8.07;;;12.80;99.90;;;;;;4733196;30;20088;-58
2022/05/03 11:27:24;;;;;;;22.92;7.63;;;13.40;99.90;;;;;;4732888;30;20413;-58
2022/05/03 11:29:59;;;;;;;22.35;7.47;;;12.70;99.90;;;;;;4732933;30;20065;-57
2022/05/03 11:32:32;;;;;;;19.45;7.60;;;13.00;99.90;;;;;;4732852;30;20056;-57
2022/05/03 11:35:02;;;;;;;19.23;6.70;;;12.90;99.90;;;;;;4732955;30;20120;-57
2022/05/03 11:37:28;;;;;;;21.23;7.35;;;12.90;99.90;;;;;;4760154;30;20063;-57
2022/05/03 11:40:05;;;;;;;19.33;6.93;;;12.80;99.90;;;;;;4788496;30;20056;-59
2022/05/03 11:42:38;;;;;;;19.52;6.80;;;12.90;99.90;;;;;;4788047;30;20504;-58
2022/05/03 11:45:05;;;;;;;16.10;6.55;;;13.00;99.90;;;;;;4788245;30;20044;-58
2022/05/03 11:47:34;;;;;;;18.98;6.60;;;12.70;99.90;;;;;;4787231;30;20058;-58
2022/05/03 11:50:03;;;;;;;19.50;6.60;;;13.30;99.90;;;;;;4788408;30;20062;-58
2022/05/03 11:57:58;;;;;;;18.40;5.90;;;;;;;;;;4787680;30;20478;-58
2022/05/03 12:00:23;;;;;;;17.38;5.82;;;13.40;99.90;;;;;;4771716;30;20059;-58
2022/05/03 12:02:50;;;;;;;13.25;5.50;;;;;;;;;;4786930;29;20150;-58
2022/05/03 12:05:20;;;;;;;14.95;5.45;;;13.40;99.90;;;;;;4787922;30;20447;-58
2022/05/03 12:07:46;;;;;;;12.98;5.40;;;;;;;;;;4771473;30;20116;-58
2022/05/03 12:10:21;;;;;;;16.38;5.28;;;13.80;99.90;;;;;;4788374;30;20074;-58
2022/05/03 12:13:02;;;;;;;13.95;5.80;;;13.40;99.90;;;;;;4787696;30;20048;-58
2022/05/03 12:15:28;;;;;;;12.23;4.85;;;13.30;99.90;;;;;;4787758;30;20067;-58
2022/05/03 12:17:59;;;;;;;15.98;5.15;;;13.30;99.90;;;;;;4787534;30;20501;-58
2022/05/03 12:20:46;;;;;;;18.02;5.88;;;13.60;99.90;;;;;;4787575;30;20501;-58
2022/05/03 12:23:18;;;;;;;14.85;4.80;;;13.80;99.90;;;;;;4787716;30;20081;-58
2022/05/03 12:25:47;;;;;;;13.20;4.72;;;13.60;99.90;;;;;;4771407;30;20062;-58
2022/05/03 12:28:12;;;;;;;15.90;4.93;;;13.90;99.90;;;;;;4787315;30;20083;-58
2022/05/03 12:30:38;;;;;;;12.52;4.68;;;14.00;99.90;;;;;;4771411;30;20093;-58
2022/05/03 12:33:06;;;;;;;15.77;5.03;;;14.00;99.90;;;;;;4787505;30;20120;-58
2022/05/03 12:35:35;;;;;;;14.90;4.82;;;14.00;99.90;;;;;;4787549;30;20091;-59
2022/05/03 12:38:09;;;;;;;15.05;4.90;;;13.80;99.90;;;;;;4787535;30;20404;-59
2022/05/03 12:40:43;;;;;;;13.13;4.57;;;14.10;99.90;;;;;;4787426;30;20068;-58
2022/05/03 12:43:21;;;;;;;16.48;4.72;;;14.20;99.90;;;;;;4787417;30;20223;-58
2022/05/03 12:46:07;;;;;;;17.30;4.80;;;14.10;99.90;;;;;;4787862;30;20582;-58
2022/05/03 12:48:36;;;;;;;15.18;4.72;;;13.90;99.90;;;;;;4787325;30;20661;-58
2022/05/03 12:51:02;;;;;;;11.65;4.20;;;14.00;99.90;;;;;;4770812;30;20559;-59
2022/05/03 12:53:35;;;;;;;16.33;4.65;;;14.10;99.90;;;;;;4787147;30;20157;-58
2022/05/03 12:58:47;;;;;;;13.05;4.25;;;14.30;99.90;;;;;;4787081;30;20062;-58
2022/05/03 13:01:13;;;;;;;10.02;3.80;;;14.40;99.90;;;;;;4787177;30;20055;-58
2022/05/03 13:03:39;;;;;;;16.73;4.45;;;14.40;99.90;;;;;;4787046;30;20146;-59
2022/05/03 13:06:05;;;;;;;18.10;4.57;;;14.40;99.90;;;;;;4786911;30;20051;-59
2022/05/03 13:08:31;;;;;;;15.88;4.53;;;14.60;99.90;;;;;;4786938;30;20051;-59
2022/05/03 13:10:58;;;;;;;13.13;4.80;;;14.50;99.80;;;;;;4786866;30;20488;-61
2022/05/03 13:13:24;;;;;;;14.55;4.30;;;14.40;99.90;;;;;;4770900;30;20060;-59
2022/05/03 13:15:50;;;;;;;10.98;4.20;;;14.40;99.90;;;;;;4786845;30;20059;-59
2022/05/03 13:18:16;;;;;;;13.15;4.43;;;14.40;99.90;;;;;;4770687;30;20534;-59
2022/05/03 13:20:43;;;;;;;16.15;4.45;;;14.20;99.90;;;;;;4787307;30;20059;-59
2022/05/03 13:23:10;;;;;;;12.63;4.20;;;13.80;99.90;;;;;;4786566;30;20126;-59
2022/05/03 13:25:36;;;;;;;16.02;4.28;;;14.20;99.90;;;;;;4770385;30;20089;-59
2022/05/03 13:28:02;;;;;;;18.95;4.30;;;14.00;99.90;;;;;;4770386;30;20051;-59
2022/05/03 13:30:28;;;;;;;13.38;4.13;;;;;;;;;;4786695;30;20063;-59
2022/05/03 13:32:54;;;;;;;12.68;4.05;;;;;;;;;;4786431;30;20063;-59
2022/05/03 13:40:28;;;;;;;17.83;4.03;;;14.90;99.90;;;;;;4786382;30;20051;-59
2022/05/03 13:40:51;;;;;;;16.40;4.13;;;15.40;99.90;;;;;;4804259;29;20062;-59
2022/05/03 13:43:17;;;;;;;11.55;4.00;;;15.20;99.90;;;;;;4803175;29;20059;-57
2022/05/03 13:45:44;;;;;;;9.73;4.00;;;15.40;99.90;;;;;;4804292;29;20054;-57
2022/05/03 13:48:10;;;;;;;9.88;3.53;;;15.50;98.90;;;;;;4804137;29;20138;-57
2022/05/03 13:50:38;;;;;;;12.68;3.95;;;15.90;98.20;;;;;;4804390;29;20126;-58
2022/05/03 13:53:04;;;;;;;9.57;3.45;;;16.30;97.20;;;;;;4788086;29;20051;-57
2022/05/03 13:55:30;;;;;;;10.90;3.70;;;16.70;95.40;;;;;;4804395;29;20047;-58